PIMOHWEATHER Station Historical Data
 
Daily Summary for February 28, 2024 Units:  Metric    English   Both
Daily Weekly Monthly Yearly
  Current: High: Low: Average:
Temperature: 30.1 °C 32.9 °C 24.4 °C 28.3 °C
Dew Point: 20.9 °C 22.2 °C 19.8 °C 21 °C
Humidity: 58% 77% 52.8% 65%
Wind Speed: 17km/h 20.9km/h 0km/h 6.3km/h
Wind Gust: 40.4km/h 60.5km/h - -
WindEast - - ENE
Pressure: 1010.2 hPa 1012.5 hPa 1009.1 hPa -
Precipitation: 0.0 mm      
 
 
Tabular Data for February 28, 2024
Time Temperature Dew Point Pressure Wind Wind Speed Wind Gust Humidity Rainfall Rate (Hourly) solar
00:04 26.3 °C 20.6 °C 1011.9 hPa East 1.4 km/h 7.9 km/h 71% 0.0 mm 0 W/m2
00:09 26.3 °C 20.6 °C 1011.9 hPa SSE 3.9 km/h 12.2 km/h 71% 0.0 mm 0 W/m2
00:14 26.2 °C 20.4 °C 1011.9 hPa ENE 2 km/h 7.9 km/h 71% 0.0 mm 0 W/m2
00:19 26.1 °C 20.6 °C 1011.9 hPa NW 0.8 km/h 7.9 km/h 71.7% 0.0 mm 0 W/m2
00:24 26 °C 20.6 °C 1011.9 hPa ENE 0.4 km/h 4 km/h 72% 0.0 mm 0 W/m2
00:29 26 °C 20.6 °C 1011.9 hPa East 0.9 km/h 7.9 km/h 72% 0.0 mm 0 W/m2
00:34 25.9 °C 20.5 °C 1011.9 hPa SSE 0.7 km/h 7.9 km/h 72% 0.0 mm 0 W/m2
00:39 25.9 °C 20.5 °C 1011.9 hPa ENE 0.2 km/h 4 km/h 72% 0.0 mm 0 W/m2
00:44 25.9 °C 20.5 °C 1011.9 hPa NE 0.6 km/h 4 km/h 72% 0.0 mm 0 W/m2
00:49 25.9 °C 20.6 °C 1011.9 hPa Calm   4 km/h 72.6% 0.0 mm 0 W/m2
00:54 25.8 °C 20.6 °C 1011.9 hPa NE 0.5 km/h 7.9 km/h 73% 0.0 mm 0 W/m2
00:59 25.8 °C 20.4 °C 1011.9 hPa NNE 1.9 km/h 7.9 km/h 72% 0.0 mm 0 W/m2
01:04 25.9 °C 20.5 °C 1011.5 hPa ENE 1.2 km/h 7.9 km/h 72% 0.0 mm 0 W/m2
01:09 26 °C 20.6 °C 1011.5 hPa NNE 2.3 km/h 16.3 km/h 72% 0.0 mm 0 W/m2
01:14 25.9 °C 20.5 °C 1011.5 hPa ENE 1.1 km/h 7.9 km/h 72% 0.0 mm 0 W/m2
01:19 25.9 °C 20.5 °C 1011.2 hPa SSW 3.7 km/h 12.2 km/h 72% 0.0 mm 0 W/m2
01:24 25.9 °C 20.5 °C 1011.5 hPa ENE 1.5 km/h 12.2 km/h 72% 0.0 mm 0 W/m2
01:29 25.9 °C 20.5 °C 1011.2 hPa ENE 2.4 km/h 16.3 km/h 72% 0.0 mm 0 W/m2
01:34 25.9 °C 20.5 °C 1011.2 hPa NNE 1.5 km/h 7.9 km/h 72% 0.0 mm 0 W/m2
01:39 25.9 °C 20.5 °C 1011.2 hPa SE 1.7 km/h 7.9 km/h 72% 0.0 mm 0 W/m2
01:44 25.8 °C 20.5 °C 1011.2 hPa NNE 3.6 km/h 16.3 km/h 72% 0.0 mm 0 W/m2
01:49 25.9 °C 20.5 °C 1011.2 hPa WNW 1.4 km/h 7.9 km/h 72% 0.0 mm 0 W/m2
01:54 25.9 °C 20.5 °C 1011.2 hPa NE 4 km/h 16.3 km/h 72% 0.0 mm 0 W/m2
01:59 25.9 °C 20.5 °C 1011.2 hPa South 2.9 km/h 12.2 km/h 72% 0.0 mm 0 W/m2
02:04 25.9 °C 20.5 °C 1011.2 hPa NE 0.7 km/h 12.2 km/h 72% 0.0 mm 0 W/m2
02:09 25.8 °C 20.4 °C 1011.2 hPa North 1.9 km/h 7.9 km/h 72% 0.0 mm 0 W/m2
02:14 25.9 °C 20.5 °C 1011.2 hPa ENE 3.1 km/h 12.2 km/h 72% 0.0 mm 0 W/m2
02:19 25.9 °C 20.4 °C 1011.2 hPa ENE 3.4 km/h 12.2 km/h 71.6% 0.0 mm 0 W/m2
02:24 25.8 °C 20.4 °C 1011.2 hPa NE 1 km/h 12.2 km/h 71.9% 0.0 mm 0 W/m2
02:29 25.8 °C 20.4 °C 1011.2 hPa ENE 1.8 km/h 12.2 km/h 72% 0.0 mm 0 W/m2
02:34 25.8 °C 20.4 °C 1011.2 hPa NE 2.8 km/h 12.2 km/h 72% 0.0 mm 0 W/m2
02:39 25.8 °C 20.4 °C 1010.8 hPa ENE 0.9 km/h 4 km/h 72% 0.0 mm 0 W/m2
02:44 25.7 °C 20.3 °C 1010.8 hPa NNE 1.9 km/h 7.9 km/h 72% 0.0 mm 0 W/m2
02:49 25.7 °C 20.3 °C 1010.8 hPa NE 0.5 km/h 7.9 km/h 72% 0.0 mm 0 W/m2
02:54 25.5 °C 20.2 °C 1010.8 hPa NNE 1.4 km/h 7.9 km/h 72.4% 0.0 mm 0 W/m2
02:59 25.4 °C 20.2 °C 1010.8 hPa NNE 1.6 km/h 7.9 km/h 73% 0.0 mm 0 W/m2
03:04 25.3 °C 20.1 °C 1010.8 hPa NE 0.9 km/h 7.9 km/h 73% 0.0 mm 0 W/m2
03:09 25.3 °C 20.1 °C 1010.8 hPa NNE 1.7 km/h 7.9 km/h 73% 0.0 mm 0 W/m2
03:14 25.2 °C 20 °C 1010.5 hPa NE 0.1 km/h 7.9 km/h 73.1% 0.0 mm 0 W/m2
03:19 25.1 °C 20 °C 1010.8 hPa NNE 1.8 km/h 7.9 km/h 73.4% 0.0 mm 0 W/m2
03:24 25.2 °C 20.1 °C 1010.8 hPa NNE 0.5 km/h 7.9 km/h 73.9% 0.0 mm 0 W/m2
03:29 25.1 °C 20.1 °C 1010.8 hPa NE 1.6 km/h 7.9 km/h 74% 0.0 mm 0 W/m2
03:34 25 °C 20 °C 1010.8 hPa NNE 1.5 km/h 7.9 km/h 74% 0.0 mm 0 W/m2
03:39 24.9 °C 19.9 °C 1011.2 hPa Calm     74% 0.0 mm 0 W/m2
03:44 24.9 °C 19.9 °C 1011.2 hPa Calm     74% 0.0 mm 0 W/m2
03:49 24.9 °C 19.9 °C 1011.2 hPa Calm     74% 0.0 mm 0 W/m2
03:54 24.9 °C 19.9 °C 1011.2 hPa NE 0.6 km/h 4 km/h 74% 0.0 mm 0 W/m2
03:59 24.9 °C 19.9 °C 1011.2 hPa NNE 0.7 km/h 4 km/h 74% 0.0 mm 0 W/m2
04:04 24.9 °C 19.9 °C 1011.2 hPa Calm     74% 0.0 mm 0 W/m2
04:09 24.8 °C 19.8 °C 1011.2 hPa Calm     74.1% 0.0 mm 0 W/m2
04:14 24.8 °C 19.8 °C 1011.2 hPa Calm   4 km/h 74.1% 0.0 mm 0 W/m2
04:19 24.9 °C 19.9 °C 1011.2 hPa Calm   4 km/h 74% 0.0 mm 0 W/m2
04:24 24.9 °C 19.9 °C 1011.2 hPa Calm   4 km/h 74% 0.0 mm 0 W/m2
04:29 24.9 °C 19.9 °C 1011.2 hPa Calm   4 km/h 74% 0.0 mm 0 W/m2
04:34 24.8 °C 19.8 °C 1011.2 hPa Calm   4 km/h 74% 0.0 mm 0 W/m2
04:39 24.7 °C 20 °C 1011.2 hPa Calm     75% 0.0 mm 0 W/m2
04:44 24.8 °C 20.1 °C 1011.2 hPa Calm     74.9% 0.0 mm 0 W/m2
04:49 24.9 °C 19.9 °C 1011.2 hPa Calm     74% 0.0 mm 0 W/m2
04:54 24.9 °C 19.9 °C 1010.8 hPa Calm     74% 0.0 mm 0 W/m2
04:59 24.9 °C 19.9 °C 1011.2 hPa Calm     74% 0.0 mm 0 W/m2
05:04 24.9 °C 19.9 °C 1011.2 hPa Calm     74% 0.0 mm 0 W/m2
05:09 24.9 °C 19.9 °C 1011.2 hPa Calm   4 km/h 74% 0.0 mm 0 W/m2
05:14 24.9 °C 20 °C 1011.2 hPa NNE 2.2 km/h 7.9 km/h 74.4% 0.0 mm 0 W/m2
05:19 24.8 °C 20.2 °C 1011.5 hPa NNE 0.8 km/h 4 km/h 75% 0.0 mm 0 W/m2
05:24 24.7 °C 20 °C 1011.2 hPa NNE 0.2 km/h 4 km/h 75% 0.0 mm 0 W/m2
05:29 24.7 °C 20 °C 1011.2 hPa NE 0.6 km/h 4 km/h 75.1% 0.0 mm 0 W/m2
05:34 24.6 °C 20.1 °C 1011.2 hPa NNE 1 km/h 4 km/h 76% 0.0 mm 0 W/m2
05:39 24.6 °C 20.1 °C 1011.2 hPa NE 0.4 km/h 4 km/h 76% 0.0 mm 0 W/m2
05:44 24.5 °C 20 °C 1011.2 hPa Calm   4 km/h 76% 0.0 mm 0 W/m2
05:49 24.5 °C 20 °C 1011.5 hPa NNE 1.4 km/h 7.9 km/h 76% 0.0 mm 0 W/m2
05:54 24.5 °C 20 °C 1011.5 hPa NNE 2.4 km/h 7.9 km/h 76% 0.0 mm 0 W/m2
05:59 24.5 °C 20 °C 1011.5 hPa NNE 2.2 km/h 7.9 km/h 76.1% 0.0 mm 0 W/m2
06:04 24.5 °C 20.2 °C 1011.5 hPa NNE 3.4 km/h 12.2 km/h 76.9% 0.0 mm 0 W/m2
06:09 24.4 °C 20.1 °C 1011.5 hPa NNE 0.9 km/h 7.9 km/h 77% 0.0 mm 0 W/m2
06:14 24.4 °C 20.1 °C 1011.9 hPa NE 0.1 km/h 4 km/h 77% 0.0 mm 2 W/m2
06:19 24.4 °C 20.1 °C 1011.5 hPa NNE 2.5 km/h 4 km/h 77% 0.0 mm 3 W/m2
06:24 24.4 °C 20.1 °C 1011.9 hPa NNE 2.1 km/h 7.9 km/h 77% 0.0 mm 7 W/m2
06:29 24.4 °C 20.1 °C 1011.9 hPa NNE 1.5 km/h 7.9 km/h 76.9% 0.0 mm 10 W/m2
06:34 24.5 °C 20 °C 1011.9 hPa NNE 1.9 km/h 7.9 km/h 76% 0.0 mm 15 W/m2
06:39 24.5 °C 20.2 °C 1011.9 hPa NNE 4.2 km/h 12.2 km/h 76.7% 0.0 mm 18 W/m2
06:44 24.5 °C 20.2 °C 1011.9 hPa NNE 0.8 km/h 7.9 km/h 77% 0.0 mm 23 W/m2
06:49 24.6 °C 20.2 °C 1012.2 hPa NE 1.8 km/h 12.2 km/h 76.4% 0.0 mm 27 W/m2
06:54 24.7 °C 20.2 °C 1011.9 hPa NNE 4 km/h 12.2 km/h 76% 0.0 mm 29 W/m2
06:59 24.8 °C 20.3 °C 1012.2 hPa NNE 3.7 km/h 12.2 km/h 76.1% 0.0 mm 29 W/m2
07:04 24.9 °C 20.4 °C 1012.2 hPa NNE 2.1 km/h 7.9 km/h 76% 0.0 mm 33 W/m2
07:09 25 °C 20.5 °C 1012.2 hPa NNE 0.8 km/h 7.9 km/h 76% 0.0 mm 35 W/m2
07:14 25 °C 20.5 °C 1012.2 hPa NNE 3 km/h 12.2 km/h 76% 0.0 mm 37 W/m2
07:19 25.2 °C 20.6 °C 1012.2 hPa NE 3.2 km/h 12.2 km/h 75.6% 0.0 mm 42 W/m2
07:24 25.3 °C 20.5 °C 1011.9 hPa North 7 km/h 16.3 km/h 75% 0.0 mm 43 W/m2
07:29 25.3 °C 20.5 °C 1012.2 hPa North 8.5 km/h 16.3 km/h 74.8% 0.0 mm 51 W/m2
07:34 25.5 °C 20.5 °C 1012.2 hPa North 6.5 km/h 16.3 km/h 74% 0.0 mm 52 W/m2
07:39 25.8 °C 20.6 °C 1012.5 hPa NNE 5.3 km/h 12.2 km/h 73.1% 0.0 mm 58 W/m2
07:44 25.9 °C 20.5 °C 1012.2 hPa NNE 6.9 km/h 16.3 km/h 72% 0.0 mm 63 W/m2
07:49 26.3 °C 20.7 °C 1012.2 hPa NNE 3.4 km/h 12.2 km/h 71.4% 0.0 mm 92 W/m2
07:54 26.6 °C 20.9 °C 1012.2 hPa NNE 6.6 km/h 16.3 km/h 71% 0.0 mm 97 W/m2
07:59 26.7 °C 20.9 °C 1012.2 hPa North 7.2 km/h 20.1 km/h 70.7% 0.0 mm 130 W/m2
08:04 26.8 °C 21 °C 1012.2 hPa NNE 4 km/h 20.1 km/h 70.1% 0.0 mm 168 W/m2
08:09 27.4 °C 21.3 °C 1012.2 hPa NE 2 km/h 12.2 km/h 69.6% 0.0 mm 190 W/m2
08:14 27.5 °C 21.3 °C 1012.2 hPa NNE 3.9 km/h 7.9 km/h 69% 0.0 mm 192 W/m2
08:19 27.5 °C 21.3 °C 1011.9 hPa NE 2.2 km/h 7.9 km/h 68.9% 0.0 mm 220 W/m2
08:24 27.9 °C 21.4 °C 1011.9 hPa ENE 0.2 km/h 7.9 km/h 67.9% 0.0 mm 249 W/m2
08:29 28.8 °C 21.9 °C 1011.9 hPa NE 0.9 km/h 16.3 km/h 66.2% 0.0 mm 269 W/m2
08:34 28.7 °C 21.7 °C 1011.9 hPa SE 2.7 km/h 12.2 km/h 66% 0.0 mm 278 W/m2
08:39 28.7 °C 21.7 °C 1012.2 hPa South 4.3 km/h 12.2 km/h 66% 0.0 mm 298 W/m2
08:44 28.7 °C 21.8 °C 1012.2 hPa East 4.7 km/h 16.3 km/h 66.3% 0.0 mm 314 W/m2
08:49 28.5 °C 21.5 °C 1012.2 hPa North 2.6 km/h 16.3 km/h 66.1% 0.0 mm 350 W/m2
08:54 28.8 °C 21.6 °C 1012.2 hPa ENE 9.4 km/h 24.1 km/h 64.9% 0.0 mm 388 W/m2
08:59 28.8 °C 21.6 °C 1012.5 hPa NE 4.9 km/h 16.3 km/h 65.1% 0.0 mm 423 W/m2
09:04 29.3 °C 21.8 °C 1012.2 hPa NE 4.7 km/h 24.1 km/h 64% 0.0 mm 492 W/m2
09:09 29.5 °C 21.7 °C 1012.2 hPa NE 2 km/h 24.1 km/h 63.1% 0.0 mm 473 W/m2
09:14 29.8 °C 21.8 °C 1012.2 hPa NE 5 km/h 16.3 km/h 62.4% 0.0 mm 507 W/m2
09:19 30.1 °C 21.9 °C 1012.5 hPa NE 6.2 km/h 20.1 km/h 61.5% 0.0 mm 549 W/m2
09:24 29.8 °C 21.7 °C 1012.2 hPa NE 10 km/h 28 km/h 62% 0.0 mm 578 W/m2
09:29 30.1 °C 21.8 °C 1012.2 hPa NE 4.3 km/h 16.3 km/h 61.2% 0.0 mm 562 W/m2
09:34 30.4 °C 22 °C 1012.2 hPa ENE 5.3 km/h 20.1 km/h 60.9% 0.0 mm 575 W/m2
09:39 30.9 °C 22 °C 1012.5 hPa ENE 4.8 km/h 16.3 km/h 59.2% 0.0 mm 502 W/m2
09:44 31.1 °C 22.1 °C 1012.2 hPa East 4.6 km/h 20.1 km/h 58.8% 0.0 mm 585 W/m2
09:49 31 °C 22 °C 1012.2 hPa ENE 5.9 km/h 20.1 km/h 58.8% 0.0 mm 610 W/m2
09:54 31.3 °C 22.2 °C 1012.2 hPa NE 8 km/h 20.1 km/h 58.3% 0.0 mm 632 W/m2
09:59 31.2 °C 21.9 °C 1012.2 hPa NNE 10.8 km/h 36.4 km/h 57.8% 0.0 mm 665 W/m2
10:04 31.1 °C 21.9 °C 1012.2 hPa ENE 13.1 km/h 32.3 km/h 57.9% 0.0 mm 692 W/m2
10:09 30.9 °C 21.6 °C 1012.2 hPa East 7.7 km/h 32.3 km/h 57.6% 0.0 mm 702 W/m2
10:14 31.5 °C 22 °C 1012.5 hPa ENE 11.3 km/h 28 km/h 57.1% 0.0 mm 703 W/m2
10:19 31.4 °C 21.7 °C 1012.2 hPa NNE 9 km/h 28 km/h 56.4% 0.0 mm 714 W/m2
10:24 31.7 °C 21.7 °C 1012.2 hPa NE 10.3 km/h 32.3 km/h 55.6% 0.0 mm 726 W/m2
10:29 31.8 °C 21.8 °C 1012.2 hPa ENE 10.4 km/h 52.6 km/h 55.6% 0.0 mm 746 W/m2
10:34 31.5 °C 21.7 °C 1011.9 hPa ENE 12.7 km/h 52.6 km/h 56.2% 0.0 mm 736 W/m2
10:39 31.3 °C 21.6 °C 1011.9 hPa ENE 6.8 km/h 28 km/h 56.1% 0.0 mm 815 W/m2
10:44 32.1 °C 21.9 °C 1011.9 hPa East 9.6 km/h 24.1 km/h 55% 0.0 mm 823 W/m2
10:49 31.9 °C 21.9 °C 1011.9 hPa ENE 8 km/h 24.1 km/h 55.5% 0.0 mm 818 W/m2
10:54 31.8 °C 21.7 °C 1011.9 hPa ENE 10.8 km/h 32.3 km/h 55.1% 0.0 mm 833 W/m2
10:59 31.8 °C 21.8 °C 1011.5 hPa NNE 7 km/h 36.4 km/h 55.6% 0.0 mm 193 W/m2
11:04 31.5 °C 21.7 °C 1011.5 hPa NNE 8.6 km/h 24.1 km/h 56.1% 0.0 mm 184 W/m2
11:09 31.3 °C 21.7 °C 1011.5 hPa ENE 6 km/h 28 km/h 56.9% 0.0 mm 198 W/m2
11:14 31.3 °C 21.6 °C 1011.5 hPa ENE 8.8 km/h 28 km/h 56.6% 0.0 mm 858 W/m2
11:19 31.6 °C 21.7 °C 1011.5 hPa ENE 10.6 km/h 32.3 km/h 56% 0.0 mm 844 W/m2
11:24 31.4 °C 21.8 °C 1011.5 hPa ENE 6.2 km/h 32.3 km/h 56.8% 0.0 mm 183 W/m2
11:29 31.3 °C 21.7 °C 1011.5 hPa NE 12.4 km/h 36.4 km/h 56.9% 0.0 mm 166 W/m2
11:34 31 °C 21.5 °C 1011.5 hPa NE 16.5 km/h 52.6 km/h 57% 0.0 mm 786 W/m2
11:39 31.3 °C 21.2 °C 1011.2 hPa NE 14.9 km/h 36.4 km/h 55.2% 0.0 mm 748 W/m2
11:44 32.2 °C 21.7 °C 1011.2 hPa SSE 10.4 km/h 32.3 km/h 54% 0.0 mm 742 W/m2
11:49 32.9 °C 22 °C 1011.2 hPa NE 7.5 km/h 20.1 km/h 52.8% 0.0 mm 801 W/m2
11:54 32.8 °C 22.2 °C 1011.2 hPa East 11.1 km/h 40.4 km/h 53.8% 0.0 mm 803 W/m2
11:59 32.9 °C 22.2 °C 1010.8 hPa NNW 6.1 km/h 28 km/h 53.6% 0.0 mm 809 W/m2
12:04 32.5 °C 22.2 °C 1010.8 hPa NE 9.4 km/h 32.3 km/h 54.6% 0.0 mm 354 W/m2
12:09 32.1 °C 21.9 °C 1010.8 hPa NE 14 km/h 44.3 km/h 55.1% 0.0 mm 853 W/m2
12:14 31.7 °C 21.9 °C 1010.8 hPa ENE 9.9 km/h 40.4 km/h 56.1% 0.0 mm 636 W/m2
12:19 31.3 °C 21.9 °C 1010.8 hPa ENE 17.9 km/h 40.4 km/h 57.2% 0.0 mm 190 W/m2
12:24 31 °C 21.8 °C 1010.8 hPa ENE 15.2 km/h 36.4 km/h 58% 0.0 mm 275 W/m2
12:29 31.2 °C 21.7 °C 1010.8 hPa NE 8.6 km/h 24.1 km/h 57% 0.0 mm 426 W/m2
12:34 31.4 °C 21.9 °C 1010.8 hPa ENE 13.8 km/h 28 km/h 56.8% 0.0 mm 763 W/m2
12:39 31.5 °C 21.8 °C 1010.5 hPa ENE 19.1 km/h 48.3 km/h 56.5% 0.0 mm 392 W/m2
12:44 31.4 °C 21.7 °C 1010.5 hPa ENE 13 km/h 36.4 km/h 56.3% 0.0 mm 525 W/m2
12:49 31.4 °C 21.5 °C 1010.5 hPa NE 11.9 km/h 32.3 km/h 55.8% 0.0 mm 819 W/m2
12:54 31.6 °C 21.6 °C 1010.2 hPa NE 10.7 km/h 32.3 km/h 55.5% 0.0 mm 767 W/m2
12:59 31.5 °C 21.5 °C 1010.2 hPa North 7.6 km/h 24.1 km/h 55.6% 0.0 mm 278 W/m2
13:04 31.4 °C 21.3 °C 1010.2 hPa NE 15.6 km/h 44.3 km/h 55% 0.0 mm 672 W/m2
13:09 31.9 °C 21.3 °C 1010.2 hPa WSW 11.3 km/h 40.4 km/h 53.4% 0.0 mm 669 W/m2
13:14 32.3 °C 21.6 °C 1009.8 hPa SSE 15.7 km/h 36.4 km/h 53.1% 0.0 mm 705 W/m2
13:19 32.4 °C 21.9 °C 1010.2 hPa ENE 11 km/h 36.4 km/h 54% 0.0 mm 724 W/m2
13:24 32.3 °C 21.8 °C 1010.2 hPa ENE 16.6 km/h 44.3 km/h 54.1% 0.0 mm 736 W/m2
13:29 32.1 °C 21.9 °C 1009.8 hPa ENE 20.9 km/h 52.6 km/h 55.1% 0.0 mm 717 W/m2
13:34 32 °C 21.9 °C 1009.8 hPa ENE 14.4 km/h 40.4 km/h 55.3% 0.0 mm 660 W/m2
13:39 32.3 °C 21.8 °C 1009.8 hPa East 17.2 km/h 32.3 km/h 54.1% 0.0 mm 638 W/m2
13:44 32.8 °C 22.2 °C 1009.5 hPa SE 12 km/h 32.3 km/h 53.8% 0.0 mm 655 W/m2
13:49 32.5 °C 22.1 °C 1009.5 hPa East 13.6 km/h 36.4 km/h 54.3% 0.0 mm 639 W/m2
13:54 32.5 °C 22.1 °C 1009.5 hPa ENE 11.6 km/h 44.3 km/h 54.2% 0.0 mm 636 W/m2
13:59 31.8 °C 21.8 °C 1009.1 hPa NE 16.3 km/h 60.5 km/h 55.5% 0.0 mm 606 W/m2
14:04 31.8 °C 21.7 °C 1009.1 hPa East 15.9 km/h 60.5 km/h 55% 0.0 mm 601 W/m2
14:09 32.4 °C 22.1 °C 1009.1 hPa SE 10.8 km/h 36.4 km/h 54.8% 0.0 mm 651 W/m2
14:14 32.4 °C 22.1 °C 1009.1 hPa ENE 10.2 km/h 32.3 km/h 54.6% 0.0 mm 659 W/m2
14:19 32 °C 21.9 °C 1009.1 hPa NE 14.5 km/h 32.3 km/h 55.4% 0.0 mm 161 W/m2
14:24 31.3 °C 21.6 °C 1009.5 hPa NE 11.4 km/h 36.4 km/h 56.3% 0.0 mm 618 W/m2
14:29 31.4 °C 21.6 °C 1009.1 hPa ENE 18 km/h 48.3 km/h 56% 0.0 mm 619 W/m2
14:34 31.4 °C 21.5 °C 1009.1 hPa East 11.5 km/h 44.3 km/h 56% 0.0 mm 128 W/m2
14:39 31.2 °C 21.6 °C 1009.1 hPa NE 8.2 km/h 28 km/h 56.7% 0.0 mm 144 W/m2
14:44 31.3 °C 21.4 °C 1009.1 hPa NE 15.4 km/h 40.4 km/h 55.9% 0.0 mm 599 W/m2
14:49 31.5 °C 21.4 °C 1009.1 hPa ENE 17.5 km/h 44.3 km/h 55.2% 0.0 mm 161 W/m2
14:54 31.3 °C 21.5 °C 1009.1 hPa NE 12.4 km/h 36.4 km/h 56.1% 0.0 mm 599 W/m2
14:59 31.8 °C 21.9 °C 1009.1 hPa East 13.4 km/h 36.4 km/h 56% 0.0 mm 567 W/m2
15:04 31.3 °C 21.8 °C 1009.1 hPa NE 15.9 km/h 52.6 km/h 57.3% 0.0 mm 413 W/m2
15:09 30.8 °C 21.6 °C 1009.1 hPa NE 11.6 km/h 44.3 km/h 57.9% 0.0 mm 123 W/m2
15:14 31 °C 21.5 °C 1009.1 hPa ENE 12.8 km/h 44.3 km/h 56.9% 0.0 mm 117 W/m2
15:19 31.5 °C 21.3 °C 1009.5 hPa NNE 10.6 km/h 36.4 km/h 54.8% 0.0 mm 117 W/m2
15:24 31.6 °C 21.5 °C 1009.1 hPa NE 12.3 km/h 36.4 km/h 55.1% 0.0 mm 110 W/m2
15:29 31.5 °C 21.5 °C 1009.1 hPa ENE 12.7 km/h 32.3 km/h 55.3% 0.0 mm 112 W/m2
15:34 31.8 °C 21.7 °C 1009.1 hPa ENE 10.7 km/h 32.3 km/h 55.1% 0.0 mm 130 W/m2
15:39 31.5 °C 21.8 °C 1009.1 hPa East 15.5 km/h 32.3 km/h 56.4% 0.0 mm 109 W/m2
15:44 31 °C 21.5 °C 1009.1 hPa ENE 9.2 km/h 36.4 km/h 57% 0.0 mm 72 W/m2
15:49 30.8 °C 21.3 °C 1009.5 hPa ENE 9.2 km/h 28 km/h 57% 0.0 mm 100 W/m2
15:54 31 °C 21.5 °C 1009.1 hPa ENE 5.1 km/h 24.1 km/h 56.9% 0.0 mm 106 W/m2
15:59 31.2 °C 21.7 °C 1009.1 hPa East 16 km/h 48.3 km/h 56.8% 0.0 mm 94 W/m2
16:04 30.7 °C 21.5 °C 1009.5 hPa ENE 9 km/h 36.4 km/h 58% 0.0 mm 85 W/m2
16:09 30.7 °C 21.5 °C 1009.5 hPa ENE 14 km/h 56.5 km/h 58% 0.0 mm 112 W/m2
16:14 30.4 °C 21.3 °C 1009.5 hPa SE 13.7 km/h 44.3 km/h 58% 0.0 mm 103 W/m2
16:19 30.3 °C 21.1 °C 1009.5 hPa ENE 20.1 km/h 44.3 km/h 58.1% 0.0 mm 73 W/m2
16:24 30 °C 21.1 °C 1009.8 hPa NE 13.8 km/h 44.3 km/h 59% 0.0 mm 42 W/m2
16:29 29.8 °C 20.9 °C 1009.8 hPa NW 8.6 km/h 28 km/h 59% 0.0 mm 43 W/m2
16:34 30 °C 21 °C 1009.8 hPa East 7.9 km/h 28 km/h 58.6% 0.0 mm 42 W/m2
16:39 30.2 °C 21 °C 1009.8 hPa ENE 14.3 km/h 32.3 km/h 58% 0.0 mm 40 W/m2
16:44 30.2 °C 21 °C 1009.8 hPa North 9.4 km/h 40.4 km/h 58% 0.0 mm 39 W/m2
16:49 30.1 °C 20.9 °C 1009.8 hPa NNE 10.9 km/h 24.1 km/h 58% 0.0 mm 38 W/m2
16:53 30.1 °C 20.9 °C 1010.2 hPa East 17 km/h 40.4 km/h 58% 0.0 mm 36 W/m2
PIMOHWEATHER Philippines
Compliments of Weather Underground - 2 mb